In Salah, Algeria

66°F / 19°C
Clear
Humidity: 24%
Dew Point: 28°F / -2°C
Wind: East at 17 mph / 28 km/h
Pressure: 30.09 in / 1019 hPa (Steady)
Visibility: 5.0 miles / 8.0 kilometers
Clouds:
Yesterday's Maximum: 79°F / 26°C
Yesterday's Minimum: 55°F / 13°C approx.
Yesterday's Cooling Degree Days: 2 approx.
Sunrise:7:24 AM CET
Sunset:6:43 PM CET
Moon Rise:5:36 PM CET
Moon Set:6:25 AM CET
Moon Phase Waxing Gibbous
NOAA Weather Radio
No local feed.
METAR DAUI 181000Z 08015KT 8000 NSC 19/M02 Q1019
As of: 11:00 AM CET on February 18, 2019
Observed at: In Salah, Algeria

View Station's History

Local Satellite

Current Satellite Forecast
Region Default Local
No Yes

View Full Screen WunderMap

Forecast

Current Satellite Forecast
Sunday
. High: 78° F. / 25° C.

. High: 66° F. / 19° C.

Features

Weather Apps

WunderRadio

Weather Underground Apps
Check out our wide variety of mobile and setup applications.

Weather Underground Applications

Top of Page

© Copyright 2019
The Weather Company, LLC